YQDG weather

Quairading Airport
Western Australia, Australia

Public forecast

Using degrees Celsius for public forecast. Weather courtesy of forecast.io.

Closest aviation weather report (METAR) to Quairading Airport

Closest report is Perth International Airport, 73.1 nm (135.3 km) W. Retrieved 2019/10/19 13:30 UTC (13 minutes ago):

YPPH 191330Z 36016KT CAVOK 23/11 Q1013 NOSIG

Closest aviation forecast (TAF) to Quairading Airport

Closest forecast is Perth International Airport, 73.1 nm (135.3 km) W. Retrieved 2019/10/19 12:00 UTC (2 hours ago):

TAF YPPH 191109Z 1912/2018 09012KT CAVOK BECMG 1912/1914 03008KT CAVOK FM192100 36008KT 9999 BKN015 FM200100 35010KT CAVOK FM200400 29016KT CAVOK FM201000 26010KT 9999 BKN020